createdAt,value
2023-04-05T00:00:11.986Z,88.40
2023-04-05T00:00:44.459Z,87.30
2023-04-05T00:01:19.222Z,88.00
2023-04-05T00:01:51.069Z,87.80
2023-04-05T00:02:24.465Z,88.00
2023-04-05T00:03:00.434Z,89.60
2023-04-05T00:03:32.384Z,88.40
2023-04-05T00:04:05.473Z,90.10
2023-04-05T00:04:38.864Z,89.30
2023-04-05T00:05:11.989Z,87.40
2023-04-05T00:05:43.781Z,88.10
2023-04-05T00:06:16.601Z,89.40
2023-04-05T00:06:52.860Z,88.50
2023-04-05T00:07:26.344Z,89.40
2023-04-05T00:08:00.547Z,87.60
2023-04-05T00:08:32.376Z,88.90
2023-04-05T00:09:05.220Z,87.60
2023-04-05T00:09:37.109Z,87.90
2023-04-05T00:10:09.452Z,89.20
2023-04-05T00:10:41.522Z,88.20
2023-04-05T00:11:13.444Z,87.60
2023-04-05T00:11:45.230Z,90.40
2023-04-05T00:12:17.046Z,87.70
2023-04-05T00:12:50.656Z,89.60
2023-04-05T00:13:22.428Z,87.70
2023-04-05T00:13:54.204Z,88.10
2023-04-05T00:14:25.980Z,89.70
2023-04-05T00:14:57.756Z,88.60
2023-04-05T00:15:34.264Z,89.90
2023-04-05T00:16:06.573Z,90.20
2023-04-05T00:16:38.659Z,87.90
2023-04-05T00:17:12.523Z,87.90
2023-04-05T00:17:45.232Z,88.60
2023-04-05T00:18:23.786Z,88.90
2023-04-05T00:19:00.158Z,90.30
2023-04-05T00:19:33.936Z,88.60
2023-04-05T00:20:07.773Z,88.00
2023-04-05T00:20:39.836Z,88.40
2023-04-05T00:21:15.512Z,87.80
2023-04-05T00:21:47.378Z,87.90
2023-04-05T00:22:25.911Z,90.40
2023-04-05T00:22:57.782Z,89.30
2023-04-05T00:23:29.597Z,89.10
2023-04-05T00:24:01.452Z,90.00
2023-04-05T00:24:33.969Z,88.20
2023-04-05T00:25:06.446Z,88.90
2023-04-05T00:25:38.157Z,88.80
2023-04-05T00:26:09.932Z,88.20
2023-04-05T00:26:43.915Z,88.90
2023-04-05T00:27:15.909Z,88.90
2023-04-05T00:27:48.088Z,90.50
2023-04-05T00:28:20.353Z,88.30
2023-04-05T00:28:52.692Z,90.40
2023-04-05T00:29:24.595Z,89.20
2023-04-05T00:29:56.566Z,88.20
2023-04-05T00:30:29.094Z,90.10
2023-04-05T00:31:00.877Z,88.80
2023-04-05T00:31:32.714Z,90.50
2023-04-05T00:32:05.029Z,88.20
2023-04-05T00:32:37.118Z,88.00
2023-04-05T00:33:08.935Z,89.10
2023-04-05T00:33:40.991Z,90.20
2023-04-05T00:34:12.825Z,88.20
2023-04-05T00:34:44.694Z,90.10
2023-04-05T00:35:17.233Z,88.50
2023-04-05T00:35:49.097Z,89.00
2023-04-05T00:36:21.161Z,89.10
2023-04-05T00:36:53.122Z,90.40
2023-04-05T00:37:25.249Z,89.70
2023-04-05T00:37:57.559Z,88.90
2023-04-05T00:38:29.337Z,90.30
2023-04-05T00:39:01.144Z,90.50
2023-04-05T00:39:33.048Z,88.90
2023-04-05T00:40:05.570Z,88.50
2023-04-05T00:40:37.412Z,89.00
2023-04-05T00:41:10.653Z,89.60
2023-04-05T00:41:44.947Z,89.50
2023-04-05T00:42:18.235Z,88.50
2023-04-05T00:42:50.346Z,90.10
2023-04-05T00:43:22.148Z,90.60
2023-04-05T00:43:53.996Z,90.40
2023-04-05T00:44:26.640Z,88.60
2023-04-05T00:44:58.422Z,88.60
2023-04-05T00:45:30.726Z,90.10
2023-04-05T00:46:04.051Z,89.30
2023-04-05T00:46:37.211Z,89.40
2023-04-05T00:47:08.942Z,89.20
2023-04-05T00:47:42.505Z,89.50
2023-04-05T00:48:15.034Z,89.20
2023-04-05T00:48:47.366Z,89.60
2023-04-05T00:49:19.313Z,88.60
2023-04-05T00:49:51.533Z,89.50
2023-04-05T00:50:24.273Z,90.30
2023-04-05T00:50:58.592Z,90.60
2023-04-05T00:51:34.399Z,90.60
2023-04-05T00:52:06.663Z,90.40
2023-04-05T00:52:38.417Z,90.50
2023-04-05T00:53:10.304Z,88.70
2023-04-05T00:53:43.009Z,90.10
2023-04-05T00:54:15.307Z,89.30
2023-04-05T00:54:47.188Z,90.40
2023-04-05T00:55:19.283Z,89.30
2023-04-05T00:55:53.840Z,89.30
2023-04-05T00:56:25.786Z,88.80
2023-04-05T00:57:01.266Z,90.10
2023-04-05T00:57:35.466Z,89.70
2023-04-05T00:58:09.114Z,90.40
2023-04-05T00:58:42.399Z,88.90
2023-04-05T00:59:14.199Z,89.70
2023-04-05T00:59:46.103Z,89.40
2023-04-05T01:00:20.385Z,89.40
2023-04-05T01:01:13.715Z,89.50
2023-04-05T01:01:55.009Z,89.50
2023-04-05T01:02:34.066Z,89.70
2023-04-05T01:03:08.835Z,89.70
2023-04-05T01:03:45.685Z,90.20
2023-04-05T01:04:21.801Z,89.30
2023-04-05T01:05:02.133Z,89.30
2023-04-05T01:06:23.376Z,90.70
2023-04-05T01:07:17.240Z,89.70
2023-04-05T01:08:01.957Z,89.80
2023-04-05T01:09:04.762Z,89.90
2023-04-05T01:10:01.611Z,89.70
2023-04-05T01:10:39.397Z,90.80
2023-04-05T01:11:14.782Z,89.30
2023-04-05T01:11:48.596Z,89.30
2023-04-05T01:12:23.957Z,90.10
2023-04-05T01:12:56.067Z,90.30
2023-04-05T01:13:30.074Z,90.20
2023-04-05T01:14:02.399Z,90.50
2023-04-05T01:14:46.970Z,90.30
2023-04-05T01:15:18.928Z,89.90
2023-04-05T01:15:50.812Z,90.30
2023-04-05T01:16:23.015Z,90.50
2023-04-05T01:16:58.715Z,90.60
2023-04-05T01:17:36.783Z,87.90
2023-04-05T01:18:11.226Z,89.90
2023-04-05T01:18:46.626Z,90.20
2023-04-05T01:19:19.003Z,90.00
2023-04-05T01:20:10.477Z,90.20
2023-04-05T01:20:53.689Z,89.90
2023-04-05T01:21:42.429Z,90.00
2023-04-05T01:22:38.049Z,90.00
2023-04-05T01:23:27.500Z,90.00
2023-04-05T01:24:32.267Z,90.00
2023-04-05T01:25:41.932Z,90.00
2023-04-05T01:26:36.947Z,90.00
2023-04-05T01:27:19.704Z,90.70
2023-04-05T01:28:18.545Z,90.00
2023-04-05T01:29:10.823Z,90.10
2023-04-05T01:29:42.510Z,91.10
2023-04-05T01:30:47.727Z,91.00
2023-04-05T01:31:34.630Z,90.10
2023-04-05T01:32:25.510Z,90.60
2023-04-05T01:33:08.820Z,90.20
2023-04-05T01:34:01.731Z,90.20
2023-04-05T01:34:45.010Z,90.20
2023-04-05T01:35:24.588Z,89.90
2023-04-05T01:36:08.755Z,90.20
2023-04-05T01:36:48.276Z,90.50
2023-04-05T01:37:26.218Z,90.80
2023-04-05T01:38:03.763Z,90.10
2023-04-05T01:38:40.513Z,90.30
2023-04-05T01:39:17.191Z,90.90
2023-04-05T01:39:51.001Z,90.30
2023-04-05T01:40:23.709Z,90.60
2023-04-05T01:40:55.796Z,90.30
2023-04-05T01:41:27.870Z,90.30
2023-04-05T01:42:01.204Z,90.30
2023-04-05T01:42:33.110Z,90.70
2023-04-05T01:43:15.620Z,90.40
2023-04-05T01:43:47.977Z,91.20
2023-04-05T01:44:19.781Z,90.40
2023-04-05T01:44:55.422Z,90.50
2023-04-05T01:45:27.342Z,90.30
2023-04-05T01:45:59.164Z,90.80
2023-04-05T01:46:31.139Z,91.10
2023-04-05T01:47:03.059Z,90.70
2023-04-05T01:47:34.836Z,90.40
2023-04-05T01:48:06.977Z,90.90
2023-04-05T01:48:38.762Z,90.10
2023-04-05T01:49:10.954Z,90.40
2023-04-05T01:49:43.036Z,90.30
2023-04-05T01:50:14.836Z,91.20
2023-04-05T01:50:46.588Z,91.40
2023-04-05T01:51:18.337Z,90.50
2023-04-05T01:51:50.895Z,90.80
2023-04-05T01:52:22.708Z,90.50
2023-04-05T01:52:54.477Z,91.10
2023-04-05T01:53:26.385Z,91.30
2023-04-05T01:53:58.136Z,90.20
2023-04-05T01:54:29.919Z,90.40
2023-04-05T01:55:03.203Z,91.00
2023-04-05T01:55:35.261Z,90.80
2023-04-05T01:56:07.255Z,90.80
2023-04-05T01:56:41.905Z,90.50
2023-04-05T01:57:13.743Z,91.50
2023-04-05T01:57:45.569Z,90.30
2023-04-05T01:58:17.409Z,90.70
2023-04-05T01:58:49.249Z,91.10
2023-04-05T01:59:21.044Z,91.50
2023-04-05T01:59:52.810Z,90.50
2023-04-05T02:00:25.741Z,90.90
2023-04-05T02:00:57.864Z,91.30
2023-04-05T02:01:29.903Z,90.60
2023-04-05T02:02:02.466Z,90.60
2023-04-05T02:02:34.270Z,91.30
2023-04-05T02:03:06.426Z,90.30
2023-04-05T02:03:38.503Z,90.60
2023-04-05T02:04:13.284Z,90.30
2023-04-05T02:04:45.215Z,91.60
2023-04-05T02:05:17.145Z,90.90
2023-04-05T02:05:48.872Z,91.50
2023-04-05T02:06:20.718Z,91.00
2023-04-05T02:06:52.465Z,90.60
2023-04-05T02:07:25.734Z,90.80
2023-04-05T02:07:57.539Z,91.10
2023-04-05T02:08:29.306Z,91.20
2023-04-05T02:09:01.433Z,90.40
2023-04-05T02:09:33.293Z,90.70
2023-04-05T02:10:05.851Z,90.30
2023-04-05T02:10:37.558Z,90.30
2023-04-05T02:11:09.365Z,91.10
2023-04-05T02:11:41.149Z,91.20
2023-04-05T02:12:13.014Z,91.50
2023-04-05T02:12:45.061Z,90.30
2023-04-05T02:13:17.788Z,90.60
2023-04-05T02:13:49.546Z,90.30
2023-04-05T02:14:21.439Z,90.80
2023-04-05T02:14:53.148Z,90.30
2023-04-05T02:15:24.986Z,90.60
2023-04-05T02:15:56.798Z,90.40
2023-04-05T02:16:28.619Z,91.50
2023-04-05T02:17:03.030Z,90.60
2023-04-05T02:17:39.156Z,91.30
2023-04-05T02:18:11.173Z,90.70
2023-04-05T02:18:43.627Z,90.70
2023-04-05T02:19:15.924Z,90.70
2023-04-05T02:19:47.696Z,90.60
2023-04-05T02:20:19.872Z,90.70
2023-04-05T02:20:52.121Z,90.70
2023-04-05T02:21:23.975Z,90.50
2023-04-05T02:21:55.719Z,91.10
2023-04-05T02:22:27.997Z,91.00
2023-04-05T02:23:01.976Z,91.50
2023-04-05T02:23:34.676Z,90.50
2023-04-05T02:24:06.822Z,91.30
2023-04-05T02:24:38.560Z,90.50
2023-04-05T02:25:11.024Z,90.50
2023-04-05T02:25:43.336Z,90.70
2023-04-05T02:26:15.406Z,90.50
2023-04-05T02:26:47.316Z,91.20
2023-04-05T02:27:19.118Z,90.50
2023-04-05T02:27:50.867Z,91.30
2023-04-05T02:28:22.609Z,91.40
2023-04-05T02:28:56.722Z,91.60
2023-04-05T02:29:28.890Z,90.80
2023-04-05T02:30:00.659Z,91.80
2023-04-05T02:30:33.355Z,90.70
2023-04-05T02:31:10.967Z,90.70
2023-04-05T02:31:43.242Z,91.20
2023-04-05T02:32:14.993Z,91.70
2023-04-05T02:32:46.879Z,90.70
2023-04-05T02:33:18.788Z,91.50
2023-04-05T02:33:51.063Z,91.60
2023-04-05T02:34:22.887Z,91.10
2023-04-05T02:34:55.205Z,91.50
2023-04-05T02:35:28.385Z,91.60
2023-04-05T02:36:00.370Z,90.50
2023-04-05T02:36:32.098Z,91.10
2023-04-05T02:37:03.915Z,91.20
2023-04-05T02:37:36.131Z,91.70
2023-04-05T02:38:09.316Z,91.70
2023-04-05T02:38:41.094Z,90.90
2023-04-05T02:39:13.766Z,91.40
2023-04-05T02:39:45.554Z,91.10
2023-04-05T02:40:18.155Z,91.10
2023-04-05T02:40:49.998Z,91.50
2023-04-05T02:41:23.690Z,90.70
2023-04-05T02:41:56.661Z,90.70
2023-04-05T02:42:28.491Z,90.50
2023-04-05T02:43:00.625Z,91.50
2023-04-05T02:43:34.053Z,91.50
2023-04-05T02:44:06.105Z,90.70
2023-04-05T02:44:37.929Z,91.00
2023-04-05T02:45:10.472Z,90.90
2023-04-05T02:45:42.298Z,90.80
2023-04-05T02:46:14.165Z,91.20
2023-04-05T02:46:47.612Z,91.80
2023-04-05T02:47:22.430Z,90.80
2023-04-05T02:48:03.216Z,91.40
2023-04-05T02:48:37.308Z,90.80
2023-04-05T02:49:09.884Z,90.90
2023-04-05T02:49:42.602Z,91.60
2023-04-05T02:50:14.765Z,91.70
2023-04-05T02:50:50.941Z,90.90
2023-04-05T02:51:23.390Z,92.00
2023-04-05T02:51:56.036Z,90.90
2023-04-05T02:52:27.824Z,90.90
2023-04-05T02:52:59.565Z,90.90
2023-04-05T02:53:32.625Z,91.60
2023-04-05T02:54:07.528Z,91.80
2023-04-05T02:54:41.196Z,90.60
2023-04-05T02:55:13.008Z,91.60
2023-04-05T02:55:55.100Z,91.70
2023-04-05T02:56:26.891Z,91.10
2023-04-05T02:57:02.235Z,90.90
2023-04-05T02:57:38.951Z,91.60
2023-04-05T02:58:24.204Z,90.90
2023-04-05T02:58:56.171Z,91.70
2023-04-05T02:59:30.008Z,91.70
2023-04-05T03:00:03.757Z,91.20
2023-04-05T03:00:36.744Z,91.30
2023-04-05T03:01:09.107Z,91.00
2023-04-05T03:01:44.285Z,91.10
2023-04-05T03:02:23.919Z,90.70
2023-04-05T03:02:56.715Z,91.30
2023-04-05T03:03:29.213Z,92.00
2023-04-05T03:04:01.200Z,91.50
2023-04-05T03:04:34.405Z,91.30
2023-04-05T03:05:09.235Z,91.70
2023-04-05T03:05:43.324Z,90.90
2023-04-05T03:06:17.338Z,91.70
2023-04-05T03:06:54.896Z,91.00
2023-04-05T03:07:27.797Z,90.90
2023-04-05T03:07:59.605Z,91.20
2023-04-05T03:08:34.233Z,91.80
2023-04-05T03:09:09.094Z,90.70
2023-04-05T03:09:41.776Z,90.90
2023-04-05T03:10:18.684Z,91.00
2023-04-05T03:10:54.850Z,90.90
2023-04-05T03:11:26.608Z,91.80
2023-04-05T03:12:03.746Z,92.10
2023-04-05T03:12:38.056Z,91.80
2023-04-05T03:13:10.869Z,91.80
2023-04-05T03:13:43.258Z,91.20
2023-04-05T03:14:22.106Z,91.60
2023-04-05T03:14:53.940Z,90.70
2023-04-05T03:15:28.524Z,91.00
2023-04-05T03:16:05.986Z,91.40
2023-04-05T03:16:41.565Z,91.00
2023-04-05T03:17:24.263Z,90.90
2023-04-05T03:18:03.951Z,90.80
2023-04-05T03:18:36.272Z,91.20
2023-04-05T03:19:12.211Z,91.70
2023-04-05T03:19:48.397Z,91.50
2023-04-05T03:20:24.918Z,91.60
2023-04-05T03:20:59.792Z,91.00
2023-04-05T03:21:33.861Z,91.00
2023-04-05T03:22:12.125Z,91.70
2023-04-05T03:22:44.760Z,91.50
2023-04-05T03:23:17.548Z,91.00
2023-04-05T03:23:51.448Z,90.70
2023-04-05T03:24:28.962Z,91.70
2023-04-05T03:25:03.987Z,90.70
2023-04-05T03:25:38.223Z,91.10
2023-04-05T03:26:10.826Z,91.00
2023-04-05T03:26:47.161Z,90.80
2023-04-05T03:27:21.873Z,91.70
2023-04-05T03:28:12.307Z,91.10
2023-04-05T03:28:47.874Z,91.10
2023-04-05T03:29:20.048Z,91.50
2023-04-05T03:29:52.838Z,91.50
2023-04-05T03:30:24.670Z,91.10
2023-04-05T03:31:02.302Z,91.10
2023-04-05T03:31:34.672Z,91.00
2023-04-05T03:32:11.900Z,91.40
2023-04-05T03:32:48.348Z,90.80
2023-04-05T03:33:39.081Z,91.10
2023-04-05T03:34:11.108Z,91.20
2023-04-05T03:34:47.943Z,92.10
2023-04-05T03:35:21.533Z,91.10
2023-04-05T03:35:53.658Z,91.10
2023-04-05T03:36:28.649Z,90.60
2023-04-05T03:37:00.407Z,91.30
2023-04-05T03:37:41.589Z,90.80
2023-04-05T03:38:15.361Z,91.20
2023-04-05T03:38:56.571Z,91.10
2023-04-05T03:39:28.683Z,91.80
2023-04-05T03:40:00.925Z,91.80
2023-04-05T03:40:32.837Z,91.10
2023-04-05T03:41:05.152Z,91.90
2023-04-05T03:41:37.985Z,91.10
2023-04-05T03:42:09.793Z,90.90
2023-04-05T03:42:41.961Z,91.10
2023-04-05T03:43:13.741Z,91.40
2023-04-05T03:43:45.526Z,91.70
2023-04-05T03:44:17.247Z,91.10
2023-04-05T03:44:52.948Z,91.10
2023-04-05T03:45:25.350Z,91.10
2023-04-05T03:45:57.511Z,91.30
2023-04-05T03:46:32.421Z,92.00
2023-04-05T03:47:04.563Z,91.40
2023-04-05T03:47:37.437Z,91.10
2023-04-05T03:48:11.789Z,91.10
2023-04-05T03:48:43.717Z,91.10
2023-04-05T03:49:16.514Z,90.90
2023-04-05T03:49:49.017Z,92.00
2023-04-05T03:50:20.964Z,91.20
2023-04-05T03:50:52.739Z,91.20
2023-04-05T03:51:25.679Z,91.20
2023-04-05T03:51:57.436Z,91.70
2023-04-05T03:52:29.315Z,91.40
2023-04-05T03:53:01.603Z,90.90
2023-04-05T03:53:33.765Z,90.90
2023-04-05T03:54:06.135Z,91.60
2023-04-05T03:54:40.822Z,91.20
2023-04-05T03:55:13.623Z,91.20
2023-04-05T03:55:50.226Z,92.10
2023-04-05T03:56:25.671Z,92.20
2023-04-05T03:56:57.518Z,91.80
2023-04-05T03:57:30.268Z,90.90
2023-04-05T03:58:05.537Z,90.90
2023-04-05T03:58:41.771Z,91.20
2023-04-05T03:59:14.712Z,90.90
2023-04-05T03:59:46.613Z,91.20
2023-04-05T04:00:20.113Z,91.40
2023-04-05T04:01:07.443Z,91.70
2023-04-05T04:01:40.581Z,91.70
2023-04-05T04:02:12.471Z,91.20
2023-04-05T04:02:45.948Z,91.90
2023-04-05T04:03:20.987Z,91.80
2023-04-05T04:03:55.477Z,91.90
2023-04-05T04:04:29.749Z,91.20
2023-04-05T04:05:02.092Z,91.80
2023-04-05T04:05:39.369Z,91.20
2023-04-05T04:06:12.436Z,91.20
2023-04-05T04:06:44.522Z,91.70
2023-04-05T04:07:17.314Z,91.70
2023-04-05T04:07:49.579Z,91.50
2023-04-05T04:08:22.654Z,91.20
2023-04-05T04:08:54.437Z,91.20
2023-04-05T04:09:28.020Z,91.20
2023-04-05T04:09:59.806Z,91.50
2023-04-05T04:10:32.774Z,91.00
2023-04-05T04:11:04.805Z,91.20
2023-04-05T04:11:39.688Z,91.70
2023-04-05T04:12:13.000Z,91.70
2023-04-05T04:12:53.764Z,91.20
2023-04-05T04:13:31.967Z,91.20
2023-04-05T04:14:12.380Z,91.00
2023-04-05T04:14:53.569Z,91.70
2023-04-05T04:15:37.354Z,91.90
2023-04-05T04:16:21.632Z,91.50
2023-04-05T04:17:09.890Z,91.20
2023-04-05T04:17:56.743Z,91.40
2023-04-05T04:18:35.982Z,92.00
2023-04-05T04:19:30.810Z,91.20
2023-04-05T04:20:21.315Z,91.10
2023-04-05T04:21:06.731Z,91.00
2023-04-05T04:21:59.900Z,92.00
2023-04-05T04:22:58.730Z,91.40
2023-04-05T04:24:02.912Z,91.90
2023-04-05T04:25:10.382Z,91.40
2023-04-05T04:26:01.663Z,91.30
2023-04-05T04:26:54.628Z,91.30
2023-04-05T04:27:50.305Z,91.00
2023-04-05T04:28:38.739Z,92.00
2023-04-05T04:29:48.556Z,91.50
2023-04-05T04:30:38.559Z,91.50
2023-04-05T04:31:39.892Z,91.00
2023-04-05T04:32:51.790Z,92.20
2023-04-05T04:33:34.608Z,92.30
2023-04-05T04:34:18.696Z,91.80
2023-04-05T04:35:18.322Z,91.60
2023-04-05T04:36:13.571Z,91.30
2023-04-05T04:37:22.552Z,91.40
2023-04-05T04:38:21.738Z,92.30
2023-04-05T04:39:16.486Z,91.40
2023-04-05T04:40:06.388Z,91.60
2023-04-05T04:40:54.000Z,91.60
2023-04-05T04:41:38.195Z,92.00
2023-04-05T04:42:38.783Z,91.40
2023-04-05T04:43:18.915Z,91.20
2023-04-05T04:44:07.685Z,91.30
2023-04-05T04:45:02.630Z,92.00
2023-04-05T04:46:06.615Z,91.30
2023-04-05T04:46:43.945Z,92.20
2023-04-05T04:47:33.782Z,91.40
2023-04-05T04:48:23.778Z,92.10
2023-04-05T04:49:05.973Z,92.20
2023-04-05T04:49:37.821Z,91.30
2023-04-05T04:50:10.686Z,91.40
2023-04-05T04:50:47.079Z,91.40
2023-04-05T04:51:18.856Z,91.40
2023-04-05T04:51:51.023Z,92.20
2023-04-05T04:52:25.928Z,92.40
2023-04-05T04:52:59.751Z,91.40
2023-04-05T04:53:31.471Z,91.40
2023-04-05T04:54:03.506Z,92.00
2023-04-05T04:54:36.224Z,91.40
2023-04-05T04:55:14.189Z,91.10
2023-04-05T04:55:46.036Z,91.60
2023-04-05T04:56:17.867Z,91.20
2023-04-05T04:56:49.578Z,91.40
2023-04-05T04:57:21.336Z,91.80
2023-04-05T04:57:53.889Z,92.20
2023-04-05T04:58:25.682Z,91.60
2023-04-05T04:59:06.222Z,91.40
2023-04-05T04:59:38.087Z,92.00
2023-04-05T05:00:15.274Z,91.40
2023-04-05T05:00:48.157Z,91.40
2023-04-05T05:01:19.894Z,91.40
2023-04-05T05:01:51.631Z,92.10
2023-04-05T05:02:30.998Z,91.10
2023-04-05T05:03:03.341Z,91.40
2023-04-05T05:03:37.065Z,92.00
2023-04-05T05:04:08.893Z,91.40
2023-04-05T05:04:43.568Z,91.20
2023-04-05T05:05:15.352Z,92.30
2023-04-05T05:05:50.194Z,91.40
2023-04-05T05:06:27.240Z,91.40
2023-04-05T05:06:59.034Z,91.40
2023-04-05T05:07:30.781Z,91.20
2023-04-05T05:08:02.633Z,91.20
2023-04-05T05:08:35.084Z,91.40
2023-04-05T05:09:06.920Z,92.10
2023-04-05T05:09:44.289Z,91.40
2023-04-05T05:10:16.551Z,92.00
2023-04-05T05:10:54.486Z,91.50
2023-04-05T05:11:28.878Z,92.50
2023-04-05T05:12:01.689Z,92.30
2023-04-05T05:12:33.540Z,91.90
2023-04-05T05:13:06.082Z,92.20
2023-04-05T05:13:37.878Z,91.20
2023-04-05T05:14:09.625Z,91.20
2023-04-05T05:14:41.416Z,91.50
2023-04-05T05:15:13.237Z,91.50
2023-04-05T05:15:44.968Z,92.40
2023-04-05T05:16:17.786Z,91.20
2023-04-05T05:16:49.612Z,92.40
2023-04-05T05:17:23.688Z,91.60
2023-04-05T05:17:55.489Z,91.90
2023-04-05T05:18:27.289Z,91.60
2023-04-05T05:18:59.018Z,91.50
2023-04-05T05:19:35.260Z,91.50
2023-04-05T05:20:10.426Z,92.40
2023-04-05T05:20:42.895Z,91.50
2023-04-05T05:21:14.944Z,91.50
2023-04-05T05:21:49.309Z,91.80
2023-04-05T05:22:21.097Z,91.50
2023-04-05T05:22:52.893Z,91.50
2023-04-05T05:23:24.759Z,91.90
2023-04-05T05:23:56.846Z,91.50
2023-04-05T05:24:28.578Z,92.00
2023-04-05T05:25:00.413Z,92.40
2023-04-05T05:25:32.168Z,92.00
2023-04-05T05:26:04.048Z,91.50
2023-04-05T05:26:37.924Z,91.30
2023-04-05T05:27:09.664Z,91.50
2023-04-05T05:27:41.897Z,91.50
2023-04-05T05:28:13.736Z,91.50
2023-04-05T05:28:46.721Z,91.90
2023-04-05T05:29:18.528Z,91.70
2023-04-05T05:29:50.888Z,91.70
2023-04-05T05:30:22.701Z,91.30
2023-04-05T05:30:54.534Z,92.50
2023-04-05T05:31:27.670Z,91.70
2023-04-05T05:31:59.574Z,91.70
2023-04-05T05:32:31.389Z,91.50
2023-04-05T05:33:03.649Z,92.30
2023-04-05T05:33:35.663Z,91.50
2023-04-05T05:34:07.698Z,91.50
2023-04-05T05:34:41.729Z,92.50
2023-04-05T05:35:13.572Z,91.60
2023-04-05T05:35:49.109Z,91.90
2023-04-05T05:36:20.962Z,91.40
2023-04-05T05:36:53.466Z,91.50
2023-04-05T05:37:33.506Z,92.00
2023-04-05T05:38:07.092Z,92.10
2023-04-05T05:38:42.996Z,91.70
2023-04-05T05:39:14.784Z,91.50
2023-04-05T05:39:46.681Z,91.60
2023-04-05T05:40:18.582Z,92.00
2023-04-05T05:40:56.807Z,91.50
2023-04-05T05:41:28.517Z,91.40
2023-04-05T05:42:00.393Z,92.50
2023-04-05T05:42:32.537Z,92.00
2023-04-05T05:43:04.239Z,92.30
2023-04-05T05:43:36.107Z,92.10
2023-04-05T05:44:07.910Z,91.30
2023-04-05T05:44:39.659Z,92.00
2023-04-05T05:45:11.494Z,91.50
2023-04-05T05:45:43.245Z,91.50
2023-04-05T05:46:15.864Z,92.10
2023-04-05T05:46:47.660Z,92.40
2023-04-05T05:47:19.642Z,91.50
2023-04-05T05:47:51.922Z,91.50
2023-04-05T05:48:23.748Z,92.20
2023-04-05T05:48:55.526Z,92.40
2023-04-05T05:49:27.364Z,91.30
2023-04-05T05:49:59.184Z,92.00
2023-04-05T05:50:32.917Z,91.40
2023-04-05T05:51:09.609Z,91.30
2023-04-05T05:51:41.511Z,91.50
2023-04-05T05:52:13.216Z,91.70
2023-04-05T05:52:44.920Z,91.50
2023-04-05T05:53:16.686Z,91.90
2023-04-05T05:53:48.559Z,91.60
2023-04-05T05:54:20.505Z,91.30
2023-04-05T05:54:52.311Z,92.60
2023-04-05T05:55:24.059Z,92.00
2023-04-05T05:55:56.588Z,92.40
2023-04-05T05:56:28.700Z,91.90
2023-04-05T05:57:02.194Z,92.40
2023-04-05T05:57:33.991Z,92.40
2023-04-05T05:58:06.293Z,91.60
2023-04-05T05:58:39.198Z,91.60
2023-04-05T05:59:12.006Z,91.30
2023-04-05T05:59:43.882Z,92.60
2023-04-05T06:00:16.194Z,92.00
2023-04-05T06:00:49.947Z,91.40
2023-04-05T06:01:27.994Z,92.10
2023-04-05T06:02:00.101Z,91.90
2023-04-05T06:02:32.504Z,91.70
2023-04-05T06:03:04.709Z,92.30
2023-04-05T06:03:36.694Z,92.40
2023-04-05T06:04:09.577Z,92.10
2023-04-05T06:04:42.051Z,91.70
2023-04-05T06:05:14.177Z,91.70
2023-04-05T06:05:56.615Z,92.20
2023-04-05T06:06:30.010Z,92.10
2023-04-05T06:07:01.729Z,91.40
2023-04-05T06:07:37.793Z,91.60
2023-04-05T06:08:09.561Z,91.80
2023-04-05T06:08:41.680Z,91.70
2023-04-05T06:09:15.453Z,92.60
2023-04-05T06:09:47.566Z,92.30
2023-04-05T06:10:20.188Z,92.10
2023-04-05T06:10:53.526Z,91.70
2023-04-05T06:11:26.715Z,91.80
2023-04-05T06:11:58.515Z,92.20
2023-04-05T06:12:30.369Z,91.70
2023-04-05T06:13:02.219Z,92.60
2023-04-05T06:13:34.080Z,91.70
2023-04-05T06:14:05.814Z,91.70
2023-04-05T06:14:37.539Z,92.10
2023-04-05T06:15:09.763Z,91.50
2023-04-05T06:15:43.411Z,91.80
2023-04-05T06:16:15.248Z,91.80
2023-04-05T06:16:47.032Z,91.70
2023-04-05T06:17:18.750Z,92.70
2023-04-05T06:17:50.669Z,91.50
2023-04-05T06:18:22.716Z,91.70
2023-04-05T06:18:56.413Z,91.70
2023-04-05T06:19:28.121Z,92.30
2023-04-05T06:19:59.904Z,92.10
2023-04-05T06:20:31.732Z,92.30
2023-04-05T06:21:03.626Z,92.50
2023-04-05T06:21:35.368Z,91.70
2023-04-05T06:22:07.141Z,91.70
2023-04-05T06:22:40.848Z,91.50
2023-04-05T06:23:13.048Z,92.00
2023-04-05T06:23:44.863Z,92.30
2023-04-05T06:24:16.580Z,91.90
2023-04-05T06:24:48.434Z,92.80
2023-04-05T06:25:20.261Z,92.20
2023-04-05T06:25:52.097Z,92.00
2023-04-05T06:26:29.756Z,92.40
2023-04-05T06:27:01.824Z,92.30
2023-04-05T06:27:33.802Z,91.70
2023-04-05T06:28:06.856Z,92.50
2023-04-05T06:28:38.809Z,91.90
2023-04-05T06:29:10.598Z,92.20
2023-04-05T06:29:42.340Z,91.70
2023-04-05T06:30:14.638Z,91.70
2023-04-05T06:30:46.629Z,91.40
2023-04-05T06:31:21.406Z,91.70
2023-04-05T06:31:55.532Z,92.60
2023-04-05T06:32:27.394Z,91.40
2023-04-05T06:32:59.773Z,92.40
2023-04-05T06:33:31.636Z,91.70
2023-04-05T06:34:03.521Z,91.40
2023-04-05T06:34:35.501Z,91.70
2023-04-05T06:35:07.939Z,91.70
2023-04-05T06:35:39.756Z,91.70
2023-04-05T06:36:11.736Z,92.60
2023-04-05T06:36:43.699Z,91.70
2023-04-05T06:37:15.467Z,91.70
2023-04-05T06:37:47.279Z,92.40
2023-04-05T06:38:19.124Z,91.30
2023-04-05T06:38:52.227Z,92.50
2023-04-05T06:39:24.024Z,92.60
2023-04-05T06:39:55.788Z,92.20
2023-04-05T06:40:27.541Z,91.50
2023-04-05T06:40:59.409Z,92.10
2023-04-05T06:41:31.181Z,92.70
2023-04-05T06:42:02.939Z,91.60
2023-04-05T06:42:43.849Z,91.70
2023-04-05T06:43:19.991Z,92.10
2023-04-05T06:43:51.771Z,92.70
2023-04-05T06:44:23.678Z,92.40
2023-04-05T06:44:55.692Z,91.70
2023-04-05T06:45:27.603Z,91.50
2023-04-05T06:45:59.718Z,91.60
2023-04-05T06:46:32.112Z,91.90
2023-04-05T06:47:04.824Z,91.80
2023-04-05T06:47:38.384Z,91.60
2023-04-05T06:48:10.906Z,92.70
2023-04-05T06:48:44.182Z,91.70
2023-04-05T06:49:15.963Z,91.70
2023-04-05T06:49:47.699Z,91.70
2023-04-05T06:50:19.411Z,91.70
2023-04-05T06:51:01.978Z,92.30
2023-04-05T06:51:33.766Z,90.80
2023-04-05T06:52:06.688Z,92.40
2023-04-05T06:52:39.013Z,92.30
2023-04-05T06:53:10.888Z,91.80
2023-04-05T06:53:42.703Z,91.80
2023-04-05T06:54:14.446Z,91.90
2023-04-05T06:54:46.206Z,92.60
2023-04-05T06:55:18.021Z,92.90
2023-04-05T06:55:52.996Z,91.90
2023-04-05T06:56:24.729Z,91.80
2023-04-05T06:56:56.649Z,91.80
2023-04-05T06:57:28.405Z,91.80
2023-04-05T06:58:00.248Z,92.60
2023-04-05T06:58:31.987Z,91.80
2023-04-05T06:59:03.809Z,92.50
2023-04-05T06:59:35.675Z,92.90
2023-04-05T07:00:17.297Z,92.70
2023-04-05T07:00:49.903Z,91.80
2023-04-05T07:01:21.853Z,92.40
2023-04-05T07:01:53.725Z,92.10
2023-04-05T07:02:25.753Z,91.80
2023-04-05T07:02:57.594Z,91.80
2023-04-05T07:03:29.441Z,91.60
2023-04-05T07:04:01.358Z,91.90
2023-04-05T07:04:36.628Z,92.90
2023-04-05T07:05:08.854Z,92.80
2023-04-05T07:05:40.848Z,91.90
2023-04-05T07:06:12.651Z,91.90
2023-04-05T07:06:44.434Z,92.90
2023-04-05T07:07:16.987Z,91.70
2023-04-05T07:07:48.853Z,92.60
2023-04-05T07:08:21.483Z,92.40
2023-04-05T07:08:53.481Z,92.40
2023-04-05T07:09:26.634Z,92.40
2023-04-05T07:09:58.496Z,92.30
2023-04-05T07:10:30.273Z,92.40
2023-04-05T07:11:02.204Z,92.60
2023-04-05T07:11:33.990Z,91.90
2023-04-05T07:12:07.353Z,91.70
2023-04-05T07:12:39.465Z,91.70
2023-04-05T07:13:11.273Z,92.30
2023-04-05T07:13:43.026Z,92.30
2023-04-05T07:14:14.939Z,91.70
2023-04-05T07:14:46.688Z,92.30
2023-04-05T07:15:18.529Z,92.30
2023-04-05T07:15:51.225Z,92.00
2023-04-05T07:16:23.617Z,92.10
2023-04-05T07:16:55.631Z,92.10
2023-04-05T07:17:59.573Z,91.90
2023-04-05T07:18:31.467Z,92.10
2023-04-05T07:19:06.021Z,92.60
2023-04-05T07:19:37.823Z,92.70
2023-04-05T07:20:10.079Z,92.20
2023-04-05T07:20:42.088Z,92.20
2023-04-05T07:21:15.238Z,93.30
2023-04-05T07:21:47.074Z,91.90
2023-04-05T07:22:18.884Z,93.00
2023-04-05T07:22:50.669Z,92.00
2023-04-05T07:23:23.158Z,92.20
2023-04-05T07:23:55.970Z,92.60
2023-04-05T07:24:27.838Z,92.10
2023-04-05T07:24:59.610Z,93.30
2023-04-05T07:25:31.808Z,93.10
2023-04-05T07:26:04.839Z,92.30
2023-04-05T07:26:37.747Z,92.80
2023-04-05T07:27:09.531Z,92.40
2023-04-05T07:27:41.600Z,92.20
2023-04-05T07:28:13.381Z,93.40
2023-04-05T07:28:45.171Z,92.20